map of SDG home
Great Circle Mapper logo
SDG - Airport
Location
City:  Sanandaj, Iran
ICAO / IATA:OICS / SDG

Details
Type:Airport (Aerodrome, Airfield)
Latitude:3514'45"N (35.245856)
Longitude:4700'33"E (47.009247)
Datum:WGS 1984
Elevation:4522 ft (1378 m)
Runways:1
Longest:8660 × 148 ft (2640 × 45 m), paved

Time
Time Zone:UTC+3:30 (DST+4:30)
Local Time:

Weather
METAR:OICS 250049Z 00000KT CAVOK 04/03 Q1021

Related Locations
Nearby:
Farthest:GMR: 11585 mi / 18644 km
Mangareva [Totegegie], Gambier Islands, PF

Find:

   beyond  
but within

Other Information
Maps:
NOTAMs:
Links:
Sources:

  
flag of Iran   

Sectional Chart

Flight Planning
at skyvector.com

Satellite Image

Google Maps Satellite View

 

Copyright © 2004-2014 Karl L. Swartz. All rights reserved.
The Great Circle Mapper name and logo are trademarks of the Great Circle Mapper.
All other trademarks mentioned herein belong to their respective owners.
Please see credits for attibutions and further copyright information.

  Follow gcmap on Facebook Follow gcmap on Twitter

hCard Microformat

Geo Microformat